CPX13 Details

Departure: Incheon International Airport (RKSI)
Arrival: Ted Stevens Anchorage International Airport (PANC) at N/A
Route: EGOBA1L EGOBA G597 KAE G597 LANAT Y51 KAGIS A590 SELDM A590 PORGE A590 HAMND NEELL6
Notes:


Current Weather Information
RKSI 191530Z 02004KT CAVOK 25/18 Q1010 NOSIG
PANC 191553Z 00000KT 10SM BKN025 BKN200 09/02 A2995 RMK AO2 SLP142 FU BKN025 T00890022